Vanua Mbalavu, Fiji
Current Conditions -  °F | °C
As of 1:00 PM on Sunday 26 Oct 2014 (Local Time) from NFNA Reporting Station
Broken Clouds Broken Clouds  
Wind Chill: 75°   Ceiling: 4500
Heat Index: 75°   Visibility: 6mi
Dew Point: 66°   Wind: 0mph
Humidity: 73%   Direction: NA
Pressure: 29.91"   Gusts: NA
Location:  17.25°S, 178.92°W
Report Text: NFNA 260100Z 00000KT 9999 SCT018 BKN045 BKN120 24/19 Q1013
Loading
Personal Weather Stations






























Interactive Weather Map
Tropical Storm Tracking
New forecast layout! Learn more

10-Day Weather Forecast

Advertisements
Track Severe Weather on mobile